sensor_id;sensor_type;location;lat;lon;timestamp;pressure;altitude;pressure_sealevel;temperature;humidity
24996;BME280;13016;52.162;21.034;2023-04-08T00:04:54;101001.85;;;11.08;52.75
24996;BME280;13016;52.162;21.034;2023-04-08T00:10:54;101009.01;;;11.27;52.44
24996;BME280;13016;52.162;21.034;2023-04-08T00:16:54;101007.02;;;11.18;52.30
24996;BME280;13016;52.162;21.034;2023-04-08T00:22:55;101013.89;;;11.28;52.71
24996;BME280;13016;52.162;21.034;2023-04-08T00:28:55;101015.02;;;11.13;52.65
24996;BME280;13016;52.162;21.034;2023-04-08T00:34:55;101014.35;;;11.29;52.87
24996;BME280;13016;52.162;21.034;2023-04-08T00:40:56;101015.38;;;11.23;52.43
24996;BME280;13016;52.162;21.034;2023-04-08T00:46:56;101015.71;;;11.00;52.19
24996;BME280;13016;52.162;21.034;2023-04-08T00:52:57;101019.33;;;11.19;52.22
24996;BME280;13016;52.162;21.034;2023-04-08T00:58:58;101027.34;;;11.11;52.00
24996;BME280;13016;52.162;21.034;2023-04-08T01:05:03;101034.45;;;10.83;52.39
24996;BME280;13016;52.162;21.034;2023-04-08T01:11:07;101036.14;;;10.68;52.71
24996;BME280;13016;52.162;21.034;2023-04-08T01:17:10;101039.77;;;11.10;52.55
24996;BME280;13016;52.162;21.034;2023-04-08T01:29:19;101038.26;;;11.11;52.21
24996;BME280;13016;52.162;21.034;2023-04-08T01:35:20;101035.52;;;11.10;52.40
24996;BME280;13016;52.162;21.034;2023-04-08T01:41:20;101035.27;;;11.14;52.57
24996;BME280;13016;52.162;21.034;2023-04-08T01:47:21;101033.45;;;11.09;52.71
24996;BME280;13016;52.162;21.034;2023-04-08T01:53:22;101034.31;;;10.99;52.40
24996;BME280;13016;52.162;21.034;2023-04-08T01:59:28;101041.98;;;10.84;52.47
24996;BME280;13016;52.162;21.034;2023-04-08T02:05:30;101051.00;;;10.74;53.10
24996;BME280;13016;52.162;21.034;2023-04-08T02:11:31;101059.92;;;10.68;53.77
24996;BME280;13016;52.162;21.034;2023-04-08T02:23:47;101061.02;;;10.47;54.13
24996;BME280;13016;52.162;21.034;2023-04-08T02:29:49;101065.91;;;10.40;54.48
24996;BME280;13016;52.162;21.034;2023-04-08T02:35:52;101071.88;;;10.41;54.65
24996;BME280;13016;52.162;21.034;2023-04-08T02:41:53;101069.30;;;10.36;54.90
24996;BME280;13016;52.162;21.034;2023-04-08T02:47:54;101081.36;;;10.27;54.92
24996;BME280;13016;52.162;21.034;2023-04-08T02:53:54;101093.97;;;10.03;55.16
24996;BME280;13016;52.162;21.034;2023-04-08T02:59:54;101100.89;;;9.76;55.84
24996;BME280;13016;52.162;21.034;2023-04-08T03:05:55;101108.73;;;9.67;56.20
24996;BME280;13016;52.162;21.034;2023-04-08T03:11:56;101112.70;;;9.57;56.62
24996;BME280;13016;52.162;21.034;2023-04-08T03:17:56;101121.95;;;9.43;56.94
24996;BME280;13016;52.162;21.034;2023-04-08T03:23:57;101125.20;;;9.37;57.12
24996;BME280;13016;52.162;21.034;2023-04-08T03:29:57;101125.20;;;9.29;57.35
24996;BME280;13016;52.162;21.034;2023-04-08T03:35:58;101128.33;;;9.22;57.37
24996;BME280;13016;52.162;21.034;2023-04-08T03:41:58;101128.50;;;9.18;57.55
24996;BME280;13016;52.162;21.034;2023-04-08T03:47:58;101128.77;;;9.12;57.54
24996;BME280;13016;52.162;21.034;2023-04-08T03:53:59;101136.08;;;9.10;57.39
24996;BME280;13016;52.162;21.034;2023-04-08T03:59:59;101140.34;;;9.01;57.30
24996;BME280;13016;52.162;21.034;2023-04-08T04:05:59;101146.08;;;8.81;57.43
24996;BME280;13016;52.162;21.034;2023-04-08T04:12:00;101148.65;;;8.79;57.75
24996;BME280;13016;52.162;21.034;2023-04-08T04:18:00;101158.80;;;8.72;57.89
24996;BME280;13016;52.162;21.034;2023-04-08T04:24:00;101162.06;;;8.65;58.21
24996;BME280;13016;52.162;21.034;2023-04-08T04:30:01;101172.02;;;8.67;58.24
24996;BME280;13016;52.162;21.034;2023-04-08T04:36:02;101179.26;;;8.66;58.46
24996;BME280;13016;52.162;21.034;2023-04-08T04:42:02;101183.95;;;8.67;58.36
24996;BME280;13016;52.162;21.034;2023-04-08T04:48:03;101190.43;;;8.59;58.54
24996;BME280;13016;52.162;21.034;2023-04-08T04:54:03;101194.58;;;8.48;58.64
24996;BME280;13016;52.162;21.034;2023-04-08T05:00:04;101195.73;;;8.50;58.52
24996;BME280;13016;52.162;21.034;2023-04-08T05:06:04;101197.52;;;8.63;58.73
24996;BME280;13016;52.162;21.034;2023-04-08T05:12:05;101203.54;;;8.66;58.31
24996;BME280;13016;52.162;21.034;2023-04-08T05:18:05;101210.24;;;8.78;58.25
24996;BME280;13016;52.162;21.034;2023-04-08T05:24:05;101210.42;;;8.95;57.96
24996;BME280;13016;52.162;21.034;2023-04-08T05:30:06;101209.23;;;9.15;57.34
24996;BME280;13016;52.162;21.034;2023-04-08T05:36:07;101212.90;;;9.24;56.68
24996;BME280;13016;52.162;21.034;2023-04-08T05:42:07;101225.26;;;9.57;56.67
24996;BME280;13016;52.162;21.034;2023-04-08T05:48:07;101231.31;;;9.94;56.26
24996;BME280;13016;52.162;21.034;2023-04-08T05:54:08;101233.92;;;10.68;55.03
24996;BME280;13016;52.162;21.034;2023-04-08T06:00:09;101238.64;;;11.54;53.30
24996;BME280;13016;52.162;21.034;2023-04-08T06:06:10;101245.97;;;12.48;50.48
24996;BME280;13016;52.162;21.034;2023-04-08T06:12:11;101249.04;;;13.10;48.06
24996;BME280;13016;52.162;21.034;2023-04-08T06:18:11;101253.04;;;13.83;46.34
24996;BME280;13016;52.162;21.034;2023-04-08T06:24:11;101255.62;;;14.38;45.37
24996;BME280;13016;52.162;21.034;2023-04-08T06:30:12;101256.34;;;15.09;44.64
24996;BME280;13016;52.162;21.034;2023-04-08T06:36:12;101253.80;;;15.74;43.21
24996;BME280;13016;52.162;21.034;2023-04-08T06:42:12;101264.21;;;16.43;41.46
24996;BME280;13016;52.162;21.034;2023-04-08T06:48:13;101268.20;;;16.74;41.38
24996;BME280;13016;52.162;21.034;2023-04-08T06:54:13;101263.44;;;17.17;38.45
24996;BME280;13016;52.162;21.034;2023-04-08T07:00:13;101266.59;;;17.67;38.00
24996;BME280;13016;52.162;21.034;2023-04-08T07:06:14;101269.77;;;18.11;36.77
24996;BME280;13016;52.162;21.034;2023-04-08T07:12:14;101271.40;;;18.20;37.12
24996;BME280;13016;52.162;21.034;2023-04-08T07:18:15;101273.88;;;18.47;36.71
24996;BME280;13016;52.162;21.034;2023-04-08T07:24:15;101275.38;;;18.75;36.34
24996;BME280;13016;52.162;21.034;2023-04-08T07:30:15;101274.64;;;18.38;35.13
24996;BME280;13016;52.162;21.034;2023-04-08T07:36:16;101273.72;;;18.22;35.67
24996;BME280;13016;52.162;21.034;2023-04-08T07:42:16;101279.29;;;18.10;36.60
24996;BME280;13016;52.162;21.034;2023-04-08T07:48:16;101278.47;;;17.91;36.70
24996;BME280;13016;52.162;21.034;2023-04-08T07:54:17;101274.17;;;17.59;37.02
24996;BME280;13016;52.162;21.034;2023-04-08T08:00:17;101278.50;;;17.35;37.25
24996;BME280;13016;52.162;21.034;2023-04-08T08:06:17;101280.98;;;16.92;37.97
24996;BME280;13016;52.162;21.034;2023-04-08T08:12:18;101279.70;;;16.99;38.74
24996;BME280;13016;52.162;21.034;2023-04-08T08:18:18;101278.89;;;17.54;37.76
24996;BME280;13016;52.162;21.034;2023-04-08T08:24:18;101281.77;;;17.60;37.61
24996;BME280;13016;52.162;21.034;2023-04-08T08:30:19;101289.50;;;18.33;38.34
24996;BME280;13016;52.162;21.034;2023-04-08T08:36:19;101285.80;;;18.74;36.93
24996;BME280;13016;52.162;21.034;2023-04-08T08:42:24;101276.75;;;19.32;36.96
24996;BME280;13016;52.162;21.034;2023-04-08T08:48:24;101274.99;;;19.35;35.26
24996;BME280;13016;52.162;21.034;2023-04-08T08:54:25;101269.58;;;19.13;35.13
24996;BME280;13016;52.162;21.034;2023-04-08T09:00:36;101268.61;;;19.29;34.90
24996;BME280;13016;52.162;21.034;2023-04-08T09:06:37;101271.54;;;20.26;34.77
24996;BME280;13016;52.162;21.034;2023-04-08T09:12:52;101274.69;;;20.41;34.22
24996;BME280;13016;52.162;21.034;2023-04-08T09:18:53;101276.50;;;20.45;34.04
24996;BME280;13016;52.162;21.034;2023-04-08T09:24:53;101274.05;;;20.36;34.76
24996;BME280;13016;52.162;21.034;2023-04-08T09:30:54;101283.45;;;20.60;33.77
24996;BME280;13016;52.162;21.034;2023-04-08T09:36:54;101276.67;;;20.41;34.05
24996;BME280;13016;52.162;21.034;2023-04-08T09:42:56;101280.51;;;19.95;33.29
24996;BME280;13016;52.162;21.034;2023-04-08T09:55:30;101273.85;;;18.83;35.77
24996;BME280;13016;52.162;21.034;2023-04-08T10:01:45;101266.20;;;18.38;35.70
24996;BME280;13016;52.162;21.034;2023-04-08T10:07:46;101259.90;;;17.91;36.39
24996;BME280;13016;52.162;21.034;2023-04-08T10:13:47;101258.29;;;17.48;36.86
24996;BME280;13016;52.162;21.034;2023-04-08T10:19:48;101252.49;;;17.39;36.47
24996;BME280;13016;52.162;21.034;2023-04-08T10:25:48;101253.05;;;17.22;36.46
24996;BME280;13016;52.162;21.034;2023-04-08T10:31:49;101243.82;;;17.20;37.57
24996;BME280;13016;52.162;21.034;2023-04-08T10:37:50;101252.39;;;17.48;37.33
24996;BME280;13016;52.162;21.034;2023-04-08T10:43:50;101247.13;;;17.42;37.71
24996;BME280;13016;52.162;21.034;2023-04-08T10:49:50;101242.39;;;17.43;36.81
24996;BME280;13016;52.162;21.034;2023-04-08T10:55:50;101237.80;;;17.55;36.84
24996;BME280;13016;52.162;21.034;2023-04-08T11:01:51;101226.38;;;17.45;36.50
24996;BME280;13016;52.162;21.034;2023-04-08T11:07:51;101224.48;;;17.58;36.31
24996;BME280;13016;52.162;21.034;2023-04-08T11:13:51;101218.31;;;17.46;36.38
24996;BME280;13016;52.162;21.034;2023-04-08T11:19:53;101219.13;;;17.65;36.06
24996;BME280;13016;52.162;21.034;2023-04-08T11:25:54;101223.42;;;17.72;36.19
24996;BME280;13016;52.162;21.034;2023-04-08T11:31:55;101223.09;;;17.85;35.74
24996;BME280;13016;52.162;21.034;2023-04-08T11:37:56;101220.83;;;17.96;36.70
24996;BME280;13016;52.162;21.034;2023-04-08T11:43:57;101215.77;;;17.74;35.16
24996;BME280;13016;52.162;21.034;2023-04-08T11:49:57;101211.92;;;18.00;34.92
24996;BME280;13016;52.162;21.034;2023-04-08T11:56:14;101203.95;;;18.13;34.75
24996;BME280;13016;52.162;21.034;2023-04-08T12:02:15;101200.08;;;18.14;34.60
24996;BME280;13016;52.162;21.034;2023-04-08T12:08:15;101194.55;;;18.25;34.40
24996;BME280;13016;52.162;21.034;2023-04-08T12:14:15;101193.20;;;18.42;34.18
24996;BME280;13016;52.162;21.034;2023-04-08T12:20:16;101192.49;;;18.55;34.00
24996;BME280;13016;52.162;21.034;2023-04-08T12:26:16;101190.31;;;18.49;34.15
24996;BME280;13016;52.162;21.034;2023-04-08T12:32:16;101187.02;;;18.43;33.28
24996;BME280;13016;52.162;21.034;2023-04-08T12:38:17;101176.48;;;18.50;33.42
24996;BME280;13016;52.162;21.034;2023-04-08T12:44:17;101167.16;;;18.53;32.26
24996;BME280;13016;52.162;21.034;2023-04-08T12:50:17;101160.45;;;18.84;34.35
24996;BME280;13016;52.162;21.034;2023-04-08T12:56:17;101161.66;;;19.01;33.66
24996;BME280;13016;52.162;21.034;2023-04-08T13:02:18;101157.23;;;19.13;32.97
24996;BME280;13016;52.162;21.034;2023-04-08T13:08:18;101158.47;;;19.26;32.22
24996;BME280;13016;52.162;21.034;2023-04-08T13:14:18;101151.50;;;19.39;33.15
24996;BME280;13016;52.162;21.034;2023-04-08T13:20:19;101148.95;;;19.46;32.78
24996;BME280;13016;52.162;21.034;2023-04-08T13:26:19;101138.58;;;19.33;32.59
24996;BME280;13016;52.162;21.034;2023-04-08T13:32:19;101137.28;;;19.23;32.22
24996;BME280;13016;52.162;21.034;2023-04-08T13:38:20;101128.95;;;19.36;32.58
24996;BME280;13016;52.162;21.034;2023-04-08T13:44:20;101118.85;;;19.48;33.06
24996;BME280;13016;52.162;21.034;2023-04-08T13:50:20;101126.82;;;19.58;33.08
24996;BME280;13016;52.162;21.034;2023-04-08T13:56:21;101123.76;;;19.60;33.39
24996;BME280;13016;52.162;21.034;2023-04-08T14:02:21;101124.35;;;19.47;33.56
24996;BME280;13016;52.162;21.034;2023-04-08T14:08:22;101119.64;;;19.20;33.21
24996;BME280;13016;52.162;21.034;2023-04-08T14:14:22;101118.17;;;19.31;32.93
24996;BME280;13016;52.162;21.034;2023-04-08T14:20:22;101116.56;;;19.33;33.56
24996;BME280;13016;52.162;21.034;2023-04-08T14:26:23;101113.39;;;19.34;34.00
24996;BME280;13016;52.162;21.034;2023-04-08T14:32:23;101115.69;;;18.97;34.08
24996;BME280;13016;52.162;21.034;2023-04-08T14:38:23;101107.64;;;19.06;34.37
24996;BME280;13016;52.162;21.034;2023-04-08T14:44:23;101110.26;;;18.88;34.33
24996;BME280;13016;52.162;21.034;2023-04-08T14:50:24;101109.94;;;18.89;35.18
24996;BME280;13016;52.162;21.034;2023-04-08T14:56:24;101112.70;;;18.84;35.43
24996;BME280;13016;52.162;21.034;2023-04-08T15:02:24;101114.59;;;18.70;35.23
24996;BME280;13016;52.162;21.034;2023-04-08T15:08:25;101114.71;;;18.75;35.45
24996;BME280;13016;52.162;21.034;2023-04-08T15:14:25;101117.86;;;18.70;35.05
24996;BME280;13016;52.162;21.034;2023-04-08T15:20:25;101123.09;;;18.65;34.56
24996;BME280;13016;52.162;21.034;2023-04-08T15:26:26;101121.11;;;18.54;34.13
24996;BME280;13016;52.162;21.034;2023-04-08T15:32:26;101125.09;;;18.54;33.30
24996;BME280;13016;52.162;21.034;2023-04-08T15:38:26;101125.23;;;18.50;33.21
24996;BME280;13016;52.162;21.034;2023-04-08T15:44:30;101127.29;;;18.42;33.30
24996;BME280;13016;52.162;21.034;2023-04-08T15:50:30;101126.83;;;18.46;33.17
24996;BME280;13016;52.162;21.034;2023-04-08T15:56:30;101128.33;;;18.51;33.84
24996;BME280;13016;52.162;21.034;2023-04-08T16:02:30;101128.95;;;18.59;34.33
24996;BME280;13016;52.162;21.034;2023-04-08T16:08:32;101131.96;;;18.63;34.70
24996;BME280;13016;52.162;21.034;2023-04-08T16:14:33;101136.14;;;18.50;35.10
24996;BME280;13016;52.162;21.034;2023-04-08T16:20:36;101135.70;;;18.33;35.87
24996;BME280;13016;52.162;21.034;2023-04-08T16:26:36;101141.93;;;18.45;36.26
24996;BME280;13016;52.162;21.034;2023-04-08T16:32:37;101138.46;;;18.34;35.90
24996;BME280;13016;52.162;21.034;2023-04-08T16:38:37;101141.44;;;18.24;35.93
24996;BME280;13016;52.162;21.034;2023-04-08T16:44:37;101143.08;;;18.12;36.32
24996;BME280;13016;52.162;21.034;2023-04-08T16:50:38;101148.19;;;18.04;36.35
24996;BME280;13016;52.162;21.034;2023-04-08T16:56:38;101153.48;;;17.90;35.85
24996;BME280;13016;52.162;21.034;2023-04-08T17:02:39;101154.03;;;18.16;35.48
24996;BME280;13016;52.162;21.034;2023-04-08T17:08:40;101155.70;;;18.17;35.60
24996;BME280;13016;52.162;21.034;2023-04-08T17:14:40;101157.55;;;17.97;35.47
24996;BME280;13016;52.162;21.034;2023-04-08T17:20:41;101163.08;;;17.88;35.09
24996;BME280;13016;52.162;21.034;2023-04-08T17:26:41;101167.80;;;17.76;34.73
24996;BME280;13016;52.162;21.034;2023-04-08T17:32:41;101174.82;;;17.73;35.17
24996;BME280;13016;52.162;21.034;2023-04-08T17:38:42;101180.92;;;17.56;36.07
24996;BME280;13016;52.162;21.034;2023-04-08T17:44:43;101189.23;;;17.53;36.90
24996;BME280;13016;52.162;21.034;2023-04-08T17:50:43;101202.81;;;17.38;38.25
24996;BME280;13016;52.162;21.034;2023-04-08T17:56:43;101202.94;;;17.18;39.49
24996;BME280;13016;52.162;21.034;2023-04-08T18:02:44;101212.37;;;17.04;39.98
24996;BME280;13016;52.162;21.034;2023-04-08T18:08:44;101219.95;;;16.86;41.52
24996;BME280;13016;52.162;21.034;2023-04-08T18:14:44;101225.75;;;16.56;42.75
24996;BME280;13016;52.162;21.034;2023-04-08T18:20:44;101236.50;;;16.27;43.80
24996;BME280;13016;52.162;21.034;2023-04-08T18:26:45;101242.66;;;15.98;45.00
24996;BME280;13016;52.162;21.034;2023-04-08T18:32:45;101244.84;;;15.64;46.48
24996;BME280;13016;52.162;21.034;2023-04-08T18:38:45;101248.01;;;15.49;47.78
24996;BME280;13016;52.162;21.034;2023-04-08T18:44:46;101253.53;;;15.30;48.91
24996;BME280;13016;52.162;21.034;2023-04-08T18:50:46;101258.69;;;15.22;50.18
24996;BME280;13016;52.162;21.034;2023-04-08T18:56:47;101259.34;;;14.96;51.70
24996;BME280;13016;52.162;21.034;2023-04-08T19:02:47;101261.84;;;14.77;53.30
24996;BME280;13016;52.162;21.034;2023-04-08T19:08:47;101252.76;;;14.80;54.57
24996;BME280;13016;52.162;21.034;2023-04-08T19:14:48;101250.69;;;14.93;55.17
24996;BME280;13016;52.162;21.034;2023-04-08T19:20:48;101243.95;;;14.96;55.76
24996;BME280;13016;52.162;21.034;2023-04-08T19:26:48;101239.66;;;14.96;56.19
24996;BME280;13016;52.162;21.034;2023-04-08T19:32:49;101237.89;;;14.93;56.70
24996;BME280;13016;52.162;21.034;2023-04-08T19:38:49;101233.78;;;14.93;56.83
24996;BME280;13016;52.162;21.034;2023-04-08T19:44:50;101230.20;;;14.91;57.01
24996;BME280;13016;52.162;21.034;2023-04-08T19:50:51;101225.50;;;14.89;57.45
24996;BME280;13016;52.162;21.034;2023-04-08T19:56:51;101223.36;;;14.84;57.61
24996;BME280;13016;52.162;21.034;2023-04-08T20:02:51;101229.19;;;14.79;57.52
24996;BME280;13016;52.162;21.034;2023-04-08T20:08:52;101228.30;;;14.77;57.85
24996;BME280;13016;52.162;21.034;2023-04-08T20:14:52;101223.16;;;14.76;58.25
24996;BME280;13016;52.162;21.034;2023-04-08T20:20:53;101224.35;;;14.80;58.20
24996;BME280;13016;52.162;21.034;2023-04-08T20:26:53;101222.58;;;14.80;58.20
24996;BME280;13016;52.162;21.034;2023-04-08T20:32:53;101217.88;;;14.79;57.95
24996;BME280;13016;52.162;21.034;2023-04-08T20:38:55;101219.23;;;14.77;58.01
24996;BME280;13016;52.162;21.034;2023-04-08T20:44:55;101222.32;;;14.76;58.34
24996;BME280;13016;52.162;21.034;2023-04-08T20:50:55;101225.23;;;14.69;58.53
24996;BME280;13016;52.162;21.034;2023-04-08T20:56:56;101224.61;;;14.63;58.50
24996;BME280;13016;52.162;21.034;2023-04-08T21:02:56;101223.88;;;14.60;58.40
24996;BME280;13016;52.162;21.034;2023-04-08T21:08:56;101222.17;;;14.59;58.46
24996;BME280;13016;52.162;21.034;2023-04-08T21:14:57;101224.98;;;14.57;58.39
24996;BME280;13016;52.162;21.034;2023-04-08T21:20:57;101221.52;;;14.45;58.61
24996;BME280;13016;52.162;21.034;2023-04-08T21:26:58;101218.80;;;14.45;58.91
24996;BME280;13016;52.162;21.034;2023-04-08T21:32:58;101209.52;;;14.46;58.95
24996;BME280;13016;52.162;21.034;2023-04-08T21:38:58;101209.02;;;14.37;59.30
24996;BME280;13016;52.162;21.034;2023-04-08T21:44:58;101212.13;;;14.24;59.85
24996;BME280;13016;52.162;21.034;2023-04-08T21:50:59;101211.48;;;14.23;60.51
24996;BME280;13016;52.162;21.034;2023-04-08T21:56:59;101207.21;;;14.29;60.83
24996;BME280;13016;52.162;21.034;2023-04-08T22:02:59;101202.34;;;14.28;61.11
24996;BME280;13016;52.162;21.034;2023-04-08T22:09:00;101194.10;;;14.37;61.20
24996;BME280;13016;52.162;21.034;2023-04-08T22:15:00;101193.52;;;14.41;61.31
24996;BME280;13016;52.162;21.034;2023-04-08T22:21:01;101180.54;;;14.49;61.64
24996;BME280;13016;52.162;21.034;2023-04-08T22:27:02;101179.60;;;14.53;61.53
24996;BME280;13016;52.162;21.034;2023-04-08T22:33:02;101178.80;;;14.54;61.66
24996;BME280;13016;52.162;21.034;2023-04-08T22:39:02;101177.44;;;14.51;62.03
24996;BME280;13016;52.162;21.034;2023-04-08T22:45:04;101177.12;;;14.50;62.15
24996;BME280;13016;52.162;21.034;2023-04-08T22:51:04;101176.29;;;14.57;62.10
24996;BME280;13016;52.162;21.034;2023-04-08T22:57:05;101177.58;;;14.65;62.11
24996;BME280;13016;52.162;21.034;2023-04-08T23:03:05;101178.56;;;14.63;62.16
24996;BME280;13016;52.162;21.034;2023-04-08T23:09:06;101182.55;;;14.78;62.13
24996;BME280;13016;52.162;21.034;2023-04-08T23:15:06;101170.66;;;14.73;61.88
24996;BME280;13016;52.162;21.034;2023-04-08T23:21:07;101167.23;;;14.66;62.33
24996;BME280;13016;52.162;21.034;2023-04-08T23:27:07;101162.91;;;14.77;62.48
24996;BME280;13016;52.162;21.034;2023-04-08T23:33:08;101157.15;;;14.78;62.54
24996;BME280;13016;52.162;21.034;2023-04-08T23:39:09;101155.48;;;14.71;62.86
24996;BME280;13016;52.162;21.034;2023-04-08T23:45:10;101153.66;;;14.85;62.97
24996;BME280;13016;52.162;21.034;2023-04-08T23:51:10;101147.13;;;14.95;62.52
24996;BME280;13016;52.162;21.034;2023-04-08T23:57:10;101140.14;;;14.88;62.01
